Birmingham, AL (35213)

1:08 AM CDT on March 27, 2015 (GMT -0500)
Crestwood South | | Change Station
CLOSE
Current Station
Personal Weather Station
Location: Birmingham, AL
Elevation: 1079 ft
Nearby Weather Stations

Elev 1079 ft 33.52 °N, 86.74 °W | Updated 14 minutes ago

Overcast
Overcast
46.5 °F
Feels Like 43 °F
N
7.0
Wind Variable Wind from North

Today
High -- | Low -- °F
--% Chance of Precip.
Yesterday
High -- | Low -- °F
Precip. -- in
6:41 AM 7:03 PM
Waxing Crescent, 49% visible
Pressure 29.88 in
Visibility 10.0 miles
Clouds Overcast 800 ft
Windchill 43 °F
Dew Point 43 °F
Humidity 86%
Rainfall 0.01 in
Snow Depth Not available.
UV 0 out of 12
Pollen 9.50 out of 12
Air Quality Not available.
Flu Activity Not available.
METAR KBHM 270553Z 35010KT 10SM OVC008 09/08 A2989 RMK AO2 RAE17 SLP118 P0003 60012 T00890078 10217 20089 402500089 55000

More Conditions Fewer Conditions

Pressure 29.88 in
Visibility 10.0 miles
Clouds Overcast 800 ft
Windchill 43 °F
Dew Point 43 °F
Humidity 86%
Rainfall 0.01 in
Snow Depth Not available.
UV 0 out of 12
Pollen 9.50 out of 12
Air Quality Not available.
Flu Activity Not available.
METAR KBHM 270553Z 35010KT 10SM OVC008 09/08 A2989 RMK AO2 RAE17 SLP118 P0003 60012 T00890078 10217 20089 402500089 55000

More Conditions Fewer Conditions

10-Day Weather Forecast

Almanac

Astronomy

Mar. 27, 2015 Rise Set
Actual Time
Civil Twilight
Nautical Twilight
Astronomical Twilight
Moon
Length of Visible Light
Length of Day
Tomorrow will be .
, % of the Moon is Illuminated

Today's Extremes

State Highs State Lows

Community

WunderPhotos

Upload Photos

1,808,700 photos uploaded!

WunderBlogs® & News

Nearby

Air Quality

  Air Quality AQ Index Pollutant
Not available.

Snow Depth

Station Depth Elevation

Earthquake Activity

City Distance Mag. Time & Date
Minimum magnitude displayed is 2.5.

Coastal Water Temperatures

Place Temperature

Stations

Nearby Weather Stations

Station Location Temp. Windchill Dew Point Humidity Wind Precip. Elev Updated Type